Time;durP1;ratioP1;P1;durP2;ratioP2;P2;SDS_P1;SDS_P2;PMS_P1;PMS_P2;Temp;Humidity;BMP_temperature;BMP_pressure;BME280_temperature;BME280_humidity;BME280_pressure;Samples;Min_cycle;Max_cycle;Signal;HPM_P1;HPM_P2
2021/09/10 00:00:20;;;;;;;13.00;9.10;;;;;;;10.37;71.38;97479.95;1850251;77;27530;-93
2021/09/10 00:02:48;;;;;;;13.05;8.53;;;;;;;10.29;71.30;97472.57;1850843;77;25277;-94
2021/09/10 00:05:15;;;;;;;16.07;8.23;;;;;;;10.24;71.50;97473.21;1818933;77;25335;-90
2021/09/10 00:07:41;;;;;;;14.13;8.75;;;;;;;10.23;71.60;97472.89;1847032;77;25732;-90
2021/09/10 00:10:09;;;;;;;12.37;8.70;;;;;;;10.20;71.55;97479.22;1849144;77;25239;-90
2021/09/10 00:12:35;;;;;;;12.37;7.67;;;;;;;10.18;71.64;97481.25;1842297;77;27510;-91
2021/09/10 00:15:04;;;;;;;12.13;7.70;;;;;;;10.07;71.63;97475.44;1826675;77;25324;-93
2021/09/10 00:17:31;;;;;;;11.40;8.40;;;;;;;10.02;71.84;97475.22;1850452;77;25727;-94
2021/09/10 00:19:57;;;;;;;11.73;7.58;;;;;;;10.03;71.89;97470.66;1830022;77;25780;-94
2021/09/10 00:22:24;;;;;;;12.33;7.72;;;;;;;10.02;71.87;97475.22;1805595;77;25773;-88
2021/09/10 00:24:50;;;;;;;11.55;8.55;;;;;;;10.02;71.89;97473.07;1850447;77;27405;-93
2021/09/10 00:27:17;;;;;;;12.43;8.68;;;;;;;10.00;71.88;97476.48;1850214;77;25455;-93
2021/09/10 00:29:43;;;;;;;12.35;8.43;;;;;;;9.97;72.00;97474.19;1847970;77;25620;-90
2021/09/10 00:32:10;;;;;;;11.45;8.03;;;;;;;9.99;72.12;97476.17;1823644;77;26211;-93
2021/09/10 00:34:37;;;;;;;13.83;8.53;;;;;;;10.00;72.15;97479.18;1842994;77;25828;-87
2021/09/10 00:37:04;;;;;;;13.15;9.33;;;;;;;10.00;72.11;97480.53;1850447;77;27557;-93
2021/09/10 00:39:30;;;;;;;17.87;10.68;;;;;;;9.96;72.28;97478.75;1851582;77;25447;-92
2021/09/10 00:41:57;;;;;;;14.10;9.10;;;;;;;9.86;72.37;97478.33;1834125;77;25285;-92
2021/09/10 00:44:24;;;;;;;13.25;9.50;;;;;;;9.78;72.47;97482.55;1824357;78;25668;-85
2021/09/10 00:46:51;;;;;;;11.68;9.05;;;;;;;9.74;72.63;97483.49;1831770;77;25327;-91
2021/09/10 00:49:17;;;;;;;19.48;10.70;;;;;;;9.75;72.77;97480.28;1852222;76;27549;-88
2021/09/10 00:51:44;;;;;;;13.98;10.48;;;;;;;9.66;72.71;97480.97;1851627;77;25676;-82
2021/09/10 00:54:11;;;;;;;13.25;9.30;;;;;;;9.58;72.81;97481.16;1851765;77;25710;-92
2021/09/10 00:56:37;;;;;;;12.23;9.78;;;;;;;9.61;72.97;97489.36;1850463;76;25712;-94
2021/09/10 00:59:05;;;;;;;13.93;9.70;;;;;;;9.60;72.90;97488.53;1851362;77;25252;-90
2021/09/10 01:01:33;;;;;;;11.28;8.80;;;;;;;9.51;72.74;97489.75;1826197;77;27344;-93
2021/09/10 01:04:02;;;;;;;13.30;9.15;;;;;;;9.44;72.93;97492.92;1823596;77;26607;-88
2021/09/10 01:06:30;;;;;;;15.70;9.45;;;;;;;9.45;73.11;97494.59;1819095;79;25197;-90
2021/09/10 01:08:58;;;;;;;12.63;8.33;;;;;;;9.40;73.08;97490.34;1817847;79;25842;-93
2021/09/10 01:11:26;;;;;;;14.53;9.15;;;;;;;9.30;73.04;97485.82;1817773;79;25272;-94
2021/09/10 01:13:55;;;;;;;13.83;9.58;;;;;;;9.30;73.31;97492.55;1842678;77;27327;-92
2021/09/10 01:16:22;;;;;;;14.18;9.55;;;;;;;9.31;73.41;97486.97;1850872;76;25248;-94
2021/09/10 01:18:49;;;;;;;12.05;8.80;;;;;;;9.30;73.36;97488.00;1850962;77;25734;-92
2021/09/10 01:21:15;;;;;;;12.47;8.63;;;;;;;9.25;73.43;97492.34;1850701;77;25635;-94
2021/09/10 01:23:42;;;;;;;11.68;9.00;;;;;;;9.21;73.59;97489.73;1850243;77;25579;-94
2021/09/10 01:26:09;;;;;;;14.70;8.65;;;;;;;9.22;73.77;97490.05;1820257;77;26911;-87
2021/09/10 01:28:36;;;;;;;13.98;9.38;;;;;;;9.22;73.81;97489.53;1826724;77;25274;-92
2021/09/10 01:31:03;;;;;;;12.33;9.43;;;;;;;9.26;73.90;97488.63;1848953;77;25472;-91
2021/09/10 01:33:29;;;;;;;12.88;9.75;;;;;;;9.21;73.90;97489.21;1831778;77;25845;-94
2021/09/10 01:35:56;;;;;;;13.88;10.03;;;;;;;9.22;74.02;97492.22;1850977;77;25724;-92
2021/09/10 01:38:24;;;;;;;13.08;9.40;;;;;;;9.27;74.11;97495.16;1827148;77;27357;-93
2021/09/10 01:40:51;;;;;;;12.40;8.23;;;;;;;9.31;73.99;97498.26;1851796;77;25233;-92
2021/09/10 01:43:17;;;;;;;11.95;8.75;;;;;;;9.29;73.87;97493.10;1851829;77;25753;-85
2021/09/10 01:45:44;;;;;;;10.98;8.20;;;;;;;9.24;73.71;97497.41;1851673;77;25627;-91
2021/09/10 01:48:11;;;;;;;12.50;8.23;;;;;;;9.22;73.85;97492.73;1850874;76;25248;-92
2021/09/10 01:50:37;;;;;;;11.57;8.05;;;;;;;9.20;73.75;97493.45;1850984;77;27326;-92
2021/09/10 01:53:04;;;;;;;10.70;7.58;;;;;;;9.20;73.72;97492.10;1838919;77;25329;-94
2021/09/10 01:55:32;;;;;;;11.28;7.40;;;;;;;9.18;73.71;97490.12;1838580;77;25700;-95
2021/09/10 01:58:00;;;;;;;10.43;7.58;;;;;;;9.11;73.60;97491.97;1849264;77;25759;-96
2021/09/10 02:00:27;;;;;;;10.55;8.23;;;;;;;9.05;73.65;97491.44;1849341;77;25249;-93
2021/09/10 02:02:54;;;;;;;12.25;8.45;;;;;;;9.02;73.79;97487.27;1835540;77;27320;-95
2021/09/10 02:05:20;;;;;;;11.70;7.83;;;;;;;9.03;73.77;97488.42;1839362;77;25335;-85
2021/09/10 02:07:47;;;;;;;9.85;6.95;;;;;;;9.01;73.83;97487.78;1834313;77;25273;-96
2021/09/10 02:10:14;;;;;;;13.75;7.67;;;;;;;9.03;73.83;97487.08;1831923;77;25735;-93
2021/09/10 02:12:41;;;;;;;11.78;7.08;;;;;;;9.05;73.75;97487.39;1842373;76;25322;-87
2021/09/10 02:15:09;;;;;;;13.30;6.87;;;;;;;9.01;73.68;97491.82;1850072;77;27294;-87
2021/09/10 02:17:35;;;;;;;9.10;6.75;;;;;;;8.99;73.68;97491.70;1805284;78;25246;-92
2021/09/10 02:20:04;;;;;;;8.45;6.78;;;;;;;8.98;73.73;97492.73;1804654;79;25183;-95
2021/09/10 02:22:30;;;;;;;11.05;7.12;;;;;;;8.97;73.77;97495.09;1773441;80;25511;-91
2021/09/10 02:24:57;;;;;;;11.88;7.85;;;;;;;8.95;73.73;97500.67;1777545;79;25229;-89
2021/09/10 02:27:23;;;;;;;11.68;7.65;;;;;;;8.93;73.75;97508.15;1790874;78;27424;-90
2021/09/10 02:29:50;;;;;;;10.58;7.25;;;;;;;8.88;73.80;97498.48;1805803;78;25232;-91
2021/09/10 02:32:17;;;;;;;11.10;8.20;;;;;;;8.79;73.76;97496.98;1805263;78;25710;-86
2021/09/10 02:34:44;;;;;;;8.98;7.33;;;;;;;8.80;73.92;97495.13;1805364;79;25615;-96
2021/09/10 02:37:12;;;;;;;11.15;7.45;;;;;;;8.80;73.95;97497.81;1803358;79;25262;-96
2021/09/10 02:39:39;;;;;;;10.82;7.70;;;;;;;8.78;73.91;97495.31;1805402;79;27547;-89
2021/09/10 02:42:06;;;;;;;11.97;6.97;;;;;;;8.73;73.90;97493.72;1804308;79;25222;-88
2021/09/10 02:44:33;;;;;;;13.00;6.97;;;;;;;8.71;73.92;97494.42;1804044;79;25191;-95
2021/09/10 02:46:59;;;;;;;12.33;8.00;;;;;;;8.71;73.91;97498.98;1799036;79;25761;-94
2021/09/10 02:49:26;;;;;;;11.95;7.85;;;;;;;8.68;73.89;97493.50;1786699;79;26022;-94
2021/09/10 02:51:53;;;;;;;11.88;7.72;;;;;;;8.68;73.97;97489.97;1804536;79;27311;-87
2021/09/10 02:54:19;;;;;;;13.53;8.05;;;;;;;8.68;73.96;97489.46;1803427;79;25698;-88
2021/09/10 02:56:46;;;;;;;13.35;8.38;;;;;;;8.67;73.98;97489.14;1804690;79;25254;-93
2021/09/10 02:59:13;;;;;;;10.80;7.85;;;;;;;8.63;73.91;97487.34;1804667;79;25693;-87
2021/09/10 03:01:44;;;;;;;11.88;8.13;;;;;;;8.55;73.90;97490.72;1804205;79;25759;-92
2021/09/10 03:04:08;;;;;;;11.20;8.03;;;;;;;8.50;73.97;97495.33;1798584;79;27590;-95
2021/09/10 03:06:34;;;;;;;17.45;9.78;;;;;;;8.50;74.17;97496.67;1797542;79;25259;-93
2021/09/10 03:09:01;;;;;;;18.98;10.25;;;;;;;8.53;74.15;97494.11;1798832;78;25734;-92
2021/09/10 03:11:28;;;;;;;17.32;9.50;;;;;;;8.52;74.17;97495.13;1799399;78;25802;-91
2021/09/10 03:13:55;;;;;;;15.43;9.13;;;;;;;8.52;74.18;97491.09;1767506;78;25314;-84
2021/09/10 03:16:21;;;;;;;13.60;8.73;;;;;;;8.51;74.11;97496.16;1800939;79;27362;-79
2021/09/10 03:18:48;;;;;;;16.85;8.88;;;;;;;8.47;74.04;97499.75;1767207;80;25361;-83
2021/09/10 03:21:15;;;;;;;21.35;10.55;;;;;;;8.45;74.08;97503.69;1799151;79;25318;-92
2021/09/10 03:23:41;;;;;;;25.15;10.93;;;;;;;8.40;73.99;97498.05;1799203;79;25748;-93
2021/09/10 03:26:08;;;;;;;19.80;10.95;;;;;;;8.38;74.10;97494.20;1777222;78;25247;-95
2021/09/10 03:28:34;;;;;;;17.70;11.28;;;;;;;8.37;74.09;97506.50;1799236;79;28227;-96
2021/09/10 03:31:01;;;;;;;16.80;10.98;;;;;;;8.33;74.07;97506.59;1798757;78;25254;-95
2021/09/10 03:33:27;;;;;;;16.62;10.98;;;;;;;8.32;74.15;97504.92;1789966;79;25532;-85
2021/09/10 03:35:54;;;;;;;20.17;11.38;;;;;;;8.31;74.15;97506.75;1748507;81;25714;-86
2021/09/10 03:38:21;;;;;;;17.92;11.15;;;;;;;8.28;74.22;97503.92;1798103;79;25213;-93
2021/09/10 03:40:47;;;;;;;20.40;12.00;;;;;;;8.27;74.20;97503.61;1800150;79;27357;-95
2021/09/10 03:43:14;;;;;;;17.73;10.58;;;;;;;8.23;74.13;97496.11;1794592;79;25296;-95
2021/09/10 03:45:41;;;;;;;19.65;10.05;;;;;;;8.21;74.20;97501.67;1768253;78;25499;-89
2021/09/10 03:48:07;;;;;;;18.05;9.68;;;;;;;8.24;74.32;97508.02;1792352;79;25894;-93
2021/09/10 03:50:34;;;;;;;20.62;12.55;;;;;;;8.24;74.36;97501.30;1796527;78;25223;-96
2021/09/10 03:53:01;;;;;;;23.57;13.35;;;;;;;8.24;74.30;97506.67;1797620;79;27296;-92
2021/09/10 03:55:27;;;;;;;34.20;16.05;;;;;;;8.22;74.28;97495.27;1799996;78;25282;-91
2021/09/10 03:57:54;;;;;;;38.28;18.05;;;;;;;8.22;74.15;97504.69;1799205;79;25240;-96
2021/09/10 04:00:20;;;;;;;43.90;20.30;;;;;;;8.21;74.31;97508.40;1798407;78;25726;-93
2021/09/10 04:02:47;;;;;;;48.63;21.97;;;;;;;8.21;74.28;97504.37;1798150;79;25732;-87
2021/09/10 04:05:13;;;;;;;50.48;20.48;;;;;;;8.20;74.21;97500.05;1800131;78;27443;-83
2021/09/10 04:07:40;;;;;;;56.00;22.20;;;;;;;8.18;74.30;97503.44;1800689;79;25189;-95
2021/09/10 04:10:08;;;;;;;46.20;22.05;;;;;;;8.18;74.37;97506.13;1800538;78;25263;-79
2021/09/10 04:12:34;;;;;;;37.55;18.75;;;;;;;8.18;74.30;97503.94;1800570;75;25683;-96
2021/09/10 04:15:01;;;;;;;44.03;19.52;;;;;;;8.14;74.20;97501.31;1800469;78;25227;-89
2021/09/10 04:17:27;;;;;;;42.88;18.10;;;;;;;8.10;74.17;97498.17;1799304;78;27423;-79
2021/09/10 04:19:54;;;;;;;36.73;16.35;;;;;;;8.07;74.16;97504.47;1794996;78;25177;-84
2021/09/10 04:22:21;;;;;;;27.27;14.40;;;;;;;8.03;74.22;97504.02;1769147;80;25225;-88
2021/09/10 04:24:47;;;;;;;26.50;14.00;;;;;;;8.02;74.36;97507.73;1768273;79;25727;-91
2021/09/10 04:27:14;;;;;;;28.57;14.18;;;;;;;7.99;74.34;97504.06;1785974;79;25245;-86
2021/09/10 04:29:40;;;;;;;26.52;13.10;;;;;;;7.93;74.40;97503.51;1800914;79;27403;-88
2021/09/10 04:32:07;;;;;;;26.02;13.70;;;;;;;7.90;74.50;97506.57;1798542;79;25307;-84
2021/09/10 04:34:34;;;;;;;23.15;12.78;;;;;;;7.89;74.61;97511.63;1799247;79;25282;-78
2021/09/10 04:37:01;;;;;;;27.50;13.32;;;;;;;7.91;74.69;97509.58;1799979;79;25670;-79
2021/09/10 04:39:27;;;;;;;33.85;17.37;;;;;;;7.91;74.74;97509.58;1777381;78;25897;-93
2021/09/10 04:41:54;;;;;;;34.80;18.17;;;;;;;7.89;74.72;97512.97;1800689;75;27393;-85
2021/09/10 04:44:21;;;;;;;35.10;18.75;;;;;;;7.91;74.71;97506.89;1800262;78;25239;-78
2021/09/10 04:46:48;;;;;;;37.73;19.10;;;;;;;7.88;74.76;97509.45;1800778;78;25215;-78
2021/09/10 04:49:14;;;;;;;26.80;14.95;;;;;;;7.87;74.84;97513.16;1800772;78;25713;-78
2021/09/10 04:51:41;;;;;;;23.90;13.75;;;;;;;7.87;74.84;97519.88;1798179;79;25458;-79
2021/09/10 04:54:07;;;;;;;21.00;11.38;;;;;;;7.89;74.98;97517.00;1800364;79;27615;-81
2021/09/10 04:56:34;;;;;;;19.65;10.98;;;;;;;7.91;74.98;97521.68;1800024;79;25221;-77
2021/09/10 04:59:01;;;;;;;20.35;10.90;;;;;;;7.92;74.94;97523.34;1800452;79;25262;-79
2021/09/10 05:01:28;;;;;;;27.77;10.28;;;;;;;7.93;74.99;97514.27;1800273;79;25668;-78
2021/09/10 05:03:54;;;;;;;22.13;10.80;;;;;;;7.98;75.17;97522.56;1800164;79;25517;-87
2021/09/10 05:06:21;;;;;;;26.55;11.00;;;;;;;8.03;75.22;97528.72;1799565;79;27516;-79
2021/09/10 05:08:47;;;;;;;21.73;9.65;;;;;;;8.06;75.29;97523.80;1798021;79;25286;-89
2021/09/10 05:11:14;;;;;;;16.80;9.53;;;;;;;8.08;75.37;97521.75;1770447;79;25443;-92
2021/09/10 05:13:42;;;;;;;16.80;9.93;;;;;;;8.13;75.41;97525.19;1793083;79;25737;-88
2021/09/10 05:16:08;;;;;;;18.45;10.25;;;;;;;8.16;75.48;97518.09;1770045;79;25243;-93
2021/09/10 05:18:35;;;;;;;19.23;12.43;;;;;;;8.19;75.54;97518.55;1797244;79;28158;-82
2021/09/10 05:21:02;;;;;;;18.55;10.50;;;;;;;8.24;75.58;97520.12;1797813;78;25729;-89
2021/09/10 05:23:28;;;;;;;16.85;10.25;;;;;;;8.29;75.63;97515.52;1797704;79;25275;-89
2021/09/10 05:25:55;;;;;;;21.68;10.90;;;;;;;8.33;75.71;97514.15;1797531;78;25589;-90
2021/09/10 05:28:21;;;;;;;15.90;10.98;;;;;;;8.39;75.77;97517.90;1797747;79;25247;-86
2021/09/10 05:30:48;;;;;;;18.25;9.75;;;;;;;8.44;75.82;97512.78;1796749;79;27457;-88
2021/09/10 05:33:15;;;;;;;24.87;10.45;;;;;;;8.47;75.93;97509.16;1798010;79;25694;-89
2021/09/10 05:35:42;;;;;;;19.02;10.75;;;;;;;8.54;76.03;97507.88;1798701;79;25650;-81
2021/09/10 05:38:09;;;;;;;19.37;11.40;;;;;;;8.61;76.16;97507.41;1799047;79;25897;-85
2021/09/10 05:40:35;;;;;;;18.35;10.60;;;;;;;8.67;76.16;97507.98;1798636;79;25312;-83
2021/09/10 05:43:02;;;;;;;20.75;10.25;;;;;;;8.71;76.32;97505.19;1798638;78;27361;-82
2021/09/10 05:45:29;;;;;;;27.13;10.18;;;;;;;8.78;76.36;97508.77;1798537;79;25278;-80
2021/09/10 05:47:55;;;;;;;21.77;10.63;;;;;;;8.85;76.39;97509.63;1792055;79;25244;-86
2021/09/10 05:50:23;;;;;;;18.27;10.63;;;;;;;8.92;76.45;97508.34;1783836;79;25725;-92
2021/09/10 05:52:49;;;;;;;17.80;10.60;;;;;;;8.97;76.55;97510.74;1796009;78;25775;-91
2021/09/10 05:55:16;;;;;;;18.45;11.22;;;;;;;9.03;76.66;97511.31;1793522;79;28541;-92
2021/09/10 05:57:43;;;;;;;18.65;10.25;;;;;;;9.11;76.78;97511.65;1779981;78;25236;-86
2021/09/10 06:00:11;;;;;;;20.08;11.30;;;;;;;9.18;76.83;97508.97;1791724;78;25240;-83
2021/09/10 06:02:40;;;;;;;17.30;10.90;;;;;;;9.27;76.89;97513.18;1778225;80;25740;-89
2021/09/10 06:05:07;;;;;;;24.05;11.97;;;;;;;9.34;76.89;97507.30;1824740;77;25970;-87
2021/09/10 06:07:34;;;;;;;22.00;10.78;;;;;;;9.44;77.00;97511.78;1844925;77;28188;-80
2021/09/10 06:10:00;;;;;;;23.52;11.85;;;;;;;9.51;77.08;97511.31;1847068;77;25238;-81
2021/09/10 06:12:27;;;;;;;17.82;11.20;;;;;;;9.60;77.17;97516.83;1847956;77;25292;-85
2021/09/10 06:14:54;;;;;;;17.55;11.35;;;;;;;9.68;77.27;97513.94;1848163;77;26678;-91
2021/09/10 06:17:21;;;;;;;18.27;11.03;;;;;;;9.81;77.38;97517.70;1847279;77;25850;-84
2021/09/10 06:19:47;;;;;;;19.00;11.93;;;;;;;9.89;77.45;97510.28;1847996;77;27404;-80
2021/09/10 06:22:15;;;;;;;15.85;10.32;;;;;;;9.98;77.50;97510.91;1847281;77;25305;-93
2021/09/10 06:24:42;;;;;;;16.32;10.63;;;;;;;10.07;77.59;97505.11;1824013;77;25284;-89
2021/09/10 06:27:08;;;;;;;14.05;10.35;;;;;;;10.20;77.67;97513.77;1847451;77;25711;-79
2021/09/10 06:29:35;;;;;;;17.10;10.78;;;;;;;10.33;77.67;97506.20;1841335;77;25257;-93
2021/09/10 06:32:02;;;;;;;19.70;11.28;;;;;;;10.46;77.71;97510.25;1845562;77;27299;-95
2021/09/10 06:34:29;;;;;;;14.05;10.40;;;;;;;10.59;77.77;97510.77;1845464;77;25653;-94
2021/09/10 06:36:56;;;;;;;17.70;9.58;;;;;;;10.71;77.74;97507.23;1845201;77;25710;-92
2021/09/10 06:39:23;;;;;;;14.93;9.60;;;;;;;10.86;77.72;97508.87;1846741;77;25689;-94
2021/09/10 06:41:49;;;;;;;15.03;9.45;;;;;;;11.01;77.68;97507.56;1846542;77;25230;-89
2021/09/10 06:44:16;;;;;;;16.67;9.75;;;;;;;11.14;77.65;97504.84;1845884;77;28130;-92
2021/09/10 06:46:43;;;;;;;14.60;9.35;;;;;;;11.25;77.62;97494.41;1844894;77;25742;-93
2021/09/10 06:49:09;;;;;;;14.87;9.63;;;;;;;11.43;77.56;97508.07;1846541;77;25619;-83
2021/09/10 06:51:36;;;;;;;18.42;8.95;;;;;;;11.59;77.51;97509.47;1845510;77;26366;-92
2021/09/10 06:54:02;;;;;;;16.00;9.20;;;;;;;11.73;77.50;97510.52;1832589;77;25234;-95
2021/09/10 06:56:29;;;;;;;16.15;8.20;;;;;;;11.87;77.44;97506.73;1835445;77;27436;-94
2021/09/10 06:58:56;;;;;;;18.67;8.43;;;;;;;12.05;77.31;97510.59;1828117;78;25993;-95
2021/09/10 07:01:22;;;;;;;13.15;8.20;;;;;;;12.22;77.36;97507.64;1826578;77;26448;-96
2021/09/10 07:03:49;;;;;;;13.68;8.80;;;;;;;12.37;77.17;97510.88;1787635;80;25668;-94
2021/09/10 07:06:15;;;;;;;15.70;9.15;;;;;;;12.51;77.25;97508.89;1806466;77;26756;-92
2021/09/10 07:08:42;;;;;;;11.05;8.00;;;;;;;12.64;77.18;97508.78;1836630;78;27245;-94
2021/09/10 07:11:08;;;;;;;12.03;8.58;;;;;;;12.80;77.29;97510.11;1831321;77;25768;-96
2021/09/10 07:13:35;;;;;;;16.52;8.48;;;;;;;12.96;77.14;97507.63;1831939;78;25648;-95
2021/09/10 07:16:03;;;;;;;11.68;8.35;;;;;;;13.14;77.08;97508.72;1822387;78;25741;-92
2021/09/10 07:18:29;;;;;;;15.25;9.50;;;;;;;13.31;77.10;97509.79;1836290;78;25719;-94
2021/09/10 07:20:56;;;;;;;11.93;9.53;;;;;;;13.48;77.08;97504.59;1833425;78;27405;-86
2021/09/10 07:23:23;;;;;;;16.12;9.08;;;;;;;13.67;77.26;97501.63;1814503;77;25739;-92
2021/09/10 07:25:49;;;;;;;15.80;9.25;;;;;;;13.89;77.30;97500.59;1825594;78;25786;-94
2021/09/10 07:28:16;;;;;;;15.23;9.23;;;;;;;14.10;77.31;97497.91;1835777;78;26530;-91
2021/09/10 07:30:42;;;;;;;16.60;8.30;;;;;;;14.38;76.73;97501.33;1836588;78;25707;-91
2021/09/10 07:33:09;;;;;;;11.80;8.10;;;;;;;14.68;76.43;97493.98;1807664;78;27370;-95
2021/09/10 07:35:35;;;;;;;11.63;7.55;;;;;;;15.07;76.03;97498.42;1818594;78;25254;-93
2021/09/10 07:38:02;;;;;;;12.37;7.25;;;;;;;15.50;75.19;97499.34;1836916;78;25697;-93
2021/09/10 07:40:28;;;;;;;8.15;6.00;;;;;;;15.94;75.03;97500.52;1838890;78;25895;-94
2021/09/10 07:42:55;;;;;;;12.23;6.15;;;;;;;16.45;73.74;97506.91;1839952;78;25660;-83
2021/09/10 07:45:23;;;;;;;11.12;6.42;;;;;;;16.93;72.61;97503.09;1837930;78;27369;-94
2021/09/10 07:47:50;;;;;;;8.93;6.20;;;;;;;17.43;72.09;97499.45;1836185;77;25811;-92
2021/09/10 07:50:16;;;;;;;10.28;6.05;;;;;;;17.89;71.13;97499.50;1834761;78;25668;-90
2021/09/10 07:52:43;;;;;;;8.33;5.95;;;;;;;18.33;70.25;97501.63;1818219;78;25880;-94
2021/09/10 07:55:10;;;;;;;6.90;5.53;;;;;;;18.74;69.83;97495.70;1831472;78;26276;-96
2021/09/10 07:57:37;;;;;;;10.43;5.85;;;;;;;19.10;69.07;97502.27;1822834;78;27408;-95
2021/09/10 08:00:05;;;;;;;9.20;5.67;;;;;;;19.42;67.91;97504.41;1806555;78;25817;-95
2021/09/10 08:02:31;;;;;;;10.75;5.87;;;;;;;19.78;66.94;97494.47;1837599;77;25879;-96
2021/09/10 08:04:59;;;;;;;11.57;5.25;;;;;;;20.15;65.99;97501.17;1840494;77;26505;-93
2021/09/10 08:07:26;;;;;;;7.78;5.65;;;;;;;20.52;64.99;97505.11;1841119;77;25791;-90
2021/09/10 08:09:52;;;;;;;10.72;5.65;;;;;;;20.88;64.23;97501.83;1841099;77;27416;-93
2021/09/10 08:12:19;;;;;;;8.35;5.47;;;;;;;21.25;63.71;97496.06;1832582;77;25676;-94
2021/09/10 08:14:46;;;;;;;8.33;4.67;;;;;;;21.62;62.99;97492.91;1819071;77;25673;-93
2021/09/10 08:17:12;;;;;;;7.92;5.28;;;;;;;22.02;62.24;97489.21;1841531;77;25831;-94
2021/09/10 08:19:39;;;;;;;8.95;5.37;;;;;;;22.36;61.39;97493.41;1841310;77;25198;-93
2021/09/10 08:22:05;;;;;;;9.65;4.95;;;;;;;22.71;60.44;97498.38;1831699;77;27433;-93
2021/09/10 08:24:32;;;;;;;8.45;5.55;;;;;;;23.05;59.53;97499.25;1807769;77;25892;-93
2021/09/10 08:26:59;;;;;;;6.67;5.03;;;;;;;23.35;59.01;97492.06;1819879;77;25681;-93
2021/09/10 08:29:25;;;;;;;9.68;4.75;;;;;;;23.66;58.38;97489.84;1827079;77;25733;-86
2021/09/10 08:31:52;;;;;;;8.28;4.87;;;;;;;23.96;57.30;97487.25;1810797;77;25745;-95
2021/09/10 08:34:18;;;;;;;9.53;4.58;;;;;;;24.30;56.01;97488.47;1841433;77;27340;-93
2021/09/10 08:36:45;;;;;;;5.28;3.85;;;;;;;24.57;54.98;97482.28;1815164;77;25899;-92
2021/09/10 08:39:12;;;;;;;5.75;4.00;;;;;;;24.82;54.29;97485.75;1841370;77;25534;-91
2021/09/10 08:41:40;;;;;;;7.55;3.67;;;;;;;25.01;53.28;97485.17;1844747;77;25704;-94
2021/09/10 08:44:07;;;;;;;8.53;4.00;;;;;;;25.20;51.62;97488.72;1828195;77;25656;-93
2021/09/10 08:46:38;;;;;;;7.10;5.05;;;;;;;25.21;51.45;97478.49;1829378;77;27489;-94
2021/09/10 08:49:05;;;;;;;6.92;4.35;;;;;;;25.38;50.75;97484.23;1840817;77;25919;-92
2021/09/10 08:51:32;;;;;;;9.05;4.95;;;;;;;25.47;49.88;97479.10;1769150;79;25743;-88
2021/09/10 08:53:58;;;;;;;9.33;5.05;;;;;;;25.53;49.92;97480.37;1786896;79;25710;-94
2021/09/10 08:56:25;;;;;;;7.72;5.25;;;;;;;25.53;49.44;97480.37;1764881;81;25756;-93
2021/09/10 08:59:17;;;;;;;7.75;4.75;;;;;;;25.62;49.14;97482.70;1793012;79;28013;-92
2021/09/10 09:01:48;;;;;;;;;;;;;;;25.72;48.80;97476.41;1782056;79;25252;-88
2021/09/10 09:04:15;;;;;;;5.85;4.42;;;;;;;25.80;46.63;97474.89;1789614;79;25806;-88
2021/09/10 09:06:43;;;;;;;7.53;4.78;;;;;;;25.78;47.66;97471.61;1800418;79;25799;-93
2021/09/10 09:09:09;;;;;;;7.40;4.97;;;;;;;25.85;47.37;97474.77;1763969;80;25235;-89
2021/09/10 09:11:36;;;;;;;10.80;5.03;;;;;;;25.91;46.90;97471.34;1801327;79;27417;-89
2021/09/10 09:14:05;;;;;;;5.60;3.80;;;;;;;25.93;46.51;97469.91;1801372;79;25666;-90
2021/09/10 09:16:32;;;;;;;8.13;6.10;;;;;;;25.99;46.03;97467.28;1798005;79;25710;-90
2021/09/10 09:19:02;;;;;;;11.95;7.55;;;;;;;26.09;46.07;97458.75;1795597;79;26487;-89
2021/09/10 09:21:32;;;;;;;9.10;4.83;;;;;;;26.23;45.75;97464.27;1801823;79;25254;-88
2021/09/10 09:24:22;;;;;;;4.83;4.30;;;;;;;26.37;44.88;97461.50;1801554;79;27421;-92
2021/09/10 09:26:52;;;;;;;6.35;4.60;;;;;;;26.40;44.08;97459.50;1794493;79;25773;-94
2021/09/10 09:29:23;;;;;;;6.62;4.12;;;;;;;26.46;43.78;97455.47;1801753;79;25695;-89
2021/09/10 09:31:59;;;;;;;9.63;4.17;;;;;;;26.49;41.88;97449.31;1801510;79;25711;-92
2021/09/10 09:34:50;;;;;;;11.50;4.42;;;;;;;26.51;42.65;97448.44;1801901;79;25710;-92
2021/09/10 09:37:19;;;;;;;7.37;3.93;;;;;;;26.61;42.18;97448.19;1791172;79;27535;-86
2021/09/10 09:40:01;;;;;;;5.83;4.30;;;;;;;26.81;41.79;97442.14;1795405;79;25268;-88
2021/09/10 09:42:29;;;;;;;;;;;;;;;26.98;41.80;97440.66;1804685;79;25694;-87
2021/09/10 09:45:22;;;;;;;7.37;4.15;;;;;;;27.07;39.61;97436.80;1801439;79;26752;-89
2021/09/10 09:47:46;;;;;;;6.47;3.90;;;;;;;27.15;40.82;97438.00;1800893;79;25809;-89
2021/09/10 09:50:19;;;;;;;6.67;3.67;;;;;;;27.24;40.47;97438.86;1801268;79;27524;-87
2021/09/10 09:52:51;;;;;;;6.20;3.80;;;;;;;27.32;40.29;97435.87;1801459;79;25888;-88
2021/09/10 09:55:18;;;;;;;;;;;;;;;27.41;40.14;97433.98;1803945;79;25589;-91
2021/09/10 09:57:45;;;;;;;12.70;4.25;;;;;;;27.50;38.76;97434.83;1801429;79;25683;-90
2021/09/10 10:00:12;;;;;;;8.58;3.98;;;;;;;27.54;39.66;97432.45;1801723;79;25766;-89
2021/09/10 10:02:39;;;;;;;6.53;3.95;;;;;;;27.61;39.60;97430.66;1802078;79;27345;-91
2021/09/10 10:05:08;;;;;;;4.92;3.50;;;;;;;27.65;38.96;97432.23;1801197;79;26288;-90
2021/09/10 10:08:06;;;;;;;4.45;3.92;;;;;;;27.67;38.58;97423.81;1805400;78;26302;-91
2021/09/10 10:10:50;;;;;;;10.45;5.00;;;;;;;27.73;38.41;97420.34;1821889;77;25720;-91
2021/09/10 10:13:29;;;;;;;8.65;4.05;;;;;;;27.77;38.37;97424.11;1819062;78;25854;-88
2021/09/10 10:15:56;;;;;;;8.00;4.17;;;;;;;27.72;38.57;97418.13;1835105;77;27590;-90
2021/09/10 10:18:44;;;;;;;10.35;4.67;;;;;;;27.66;38.03;97414.42;1835867;78;26291;-91
2021/09/10 10:21:14;;;;;;;6.35;3.80;;;;;;;27.63;38.25;97409.55;1835959;78;25764;-89
2021/09/10 10:23:49;;;;;;;6.40;3.75;;;;;;;27.60;38.31;97410.43;1835631;78;25903;-90
2021/09/10 10:26:36;;;;;;;6.97;3.45;;;;;;;27.63;37.79;97413.13;1835538;77;25803;-88
2021/09/10 10:29:08;;;;;;;6.97;4.47;;;;;;;27.54;37.66;97415.83;1833479;78;27501;-91
2021/09/10 10:32:02;;;;;;;5.08;4.22;;;;;;;27.34;37.62;97391.47;1826228;78;25703;-94
2021/09/10 10:34:31;;;;;;;4.87;3.72;;;;;;;27.34;37.62;97391.47;1825152;78;26299;-91
2021/09/10 10:36:58;;;;;;;7.75;3.87;;;;;;;27.36;37.95;97407.20;1835883;77;25753;-93
2021/09/10 10:39:30;;;;;;;7.60;3.92;;;;;;;27.36;37.98;97416.09;1835897;77;25707;-89
2021/09/10 10:42:03;;;;;;;6.40;3.95;;;;;;;27.32;37.64;97410.36;1836030;77;27524;-90
2021/09/10 10:44:41;;;;;;;7.83;3.67;;;;;;;27.21;37.51;97402.08;1835803;78;25739;-90
2021/09/10 10:47:11;;;;;;;6.62;4.03;;;;;;;27.20;37.88;97406.80;1835917;78;25899;-88
2021/09/10 10:49:47;;;;;;;3.90;3.55;;;;;;;27.20;38.24;97400.44;1835759;78;26735;-92
2021/09/10 10:52:41;;;;;;;10.75;3.40;;;;;;;27.22;37.75;97403.72;1813782;78;25811;-90
2021/09/10 10:55:28;;;;;;;8.58;3.47;;;;;;;27.18;37.29;97401.33;1809995;78;28284;-88
2021/09/10 10:58:16;;;;;;;7.67;3.98;;;;;;;27.12;36.84;97390.14;1835916;78;25692;-93
2021/09/10 11:00:50;;;;;;;5.83;3.60;;;;;;;27.13;36.80;97395.94;1832591;78;25752;-91
2021/09/10 11:03:22;;;;;;;6.30;3.83;;;;;;;27.13;37.28;97394.55;1825624;78;25713;-90
2021/09/10 11:05:50;;;;;;;;;;;;;;;27.17;36.70;97393.58;1828022;78;25765;-96
2021/09/10 11:08:41;;;;;;;7.62;3.70;;;;;;;27.14;36.27;97392.03;1810420;78;27405;-91
2021/09/10 11:11:08;;;;;;;5.10;4.00;;;;;;;26.97;36.14;97395.52;1821919;77;25661;-92
2021/09/10 11:13:41;;;;;;;7.58;3.90;;;;;;;26.98;35.97;97393.57;1812767;78;26181;-91
2021/09/10 11:16:10;;;;;;;3.85;3.40;;;;;;;26.98;35.77;97391.62;1823698;77;25709;-90
2021/09/10 11:18:38;;;;;;;7.30;3.95;;;;;;;27.01;35.42;97381.30;1826317;78;25793;-81
2021/09/10 11:21:07;;;;;;;5.60;3.62;;;;;;;27.03;35.48;97374.88;1834026;78;28162;-92
2021/09/10 11:23:38;;;;;;;8.33;3.45;;;;;;;27.02;35.81;97372.42;1835698;77;25707;-90
2021/09/10 11:26:09;;;;;;;3.85;3.35;;;;;;;26.96;35.72;97366.75;1832986;77;25709;-91
2021/09/10 11:28:38;;;;;;;10.63;4.53;;;;;;;26.95;35.63;97366.50;1816885;78;26285;-88
2021/09/10 11:31:05;;;;;;;4.97;3.52;;;;;;;26.84;35.85;97368.12;1835755;77;25804;-91
2021/09/10 11:33:43;;;;;;;6.60;3.85;;;;;;;26.75;35.99;97365.88;1834194;78;28314;-92